createdAt,value
2018-03-15T00:04:19.815Z,97998.16
2018-03-15T00:06:48.521Z,98004.47
2018-03-15T00:09:17.056Z,97999.96
2018-03-15T00:11:47.152Z,97998.92
2018-03-15T00:14:15.562Z,97992.77
2018-03-15T00:16:43.916Z,97989.48
2018-03-15T00:19:12.815Z,97994.28
2018-03-15T00:21:41.162Z,97991.67
2018-03-15T00:24:11.884Z,97987.84
2018-03-15T00:26:41.175Z,97987.21
2018-03-15T00:29:09.529Z,97987.59
2018-03-15T00:31:39.231Z,97979.88
2018-03-15T00:34:08.781Z,97982.66
2018-03-15T00:36:38.017Z,97981.72
2018-03-15T00:39:07.086Z,97974.94
2018-03-15T00:41:36.466Z,97965.45
2018-03-15T00:44:06.416Z,97969.33
2018-03-15T00:46:36.461Z,97960.57
2018-03-15T00:49:05.423Z,97953.10
2018-03-15T00:51:34.706Z,97955.34
2018-03-15T00:54:03.078Z,97943.99
2018-03-15T00:56:33.551Z,97950.45
2018-03-15T00:59:01.875Z,97949.31
2018-03-15T01:01:31.161Z,97942.81
2018-03-15T01:03:59.880Z,97937.80
2018-03-15T01:06:28.230Z,97933.24
2018-03-15T01:08:58.327Z,97928.67
2018-03-15T01:11:27.983Z,97923.42
2018-03-15T01:13:56.344Z,97932.40
2018-03-15T01:16:25.900Z,97935.27
2018-03-15T01:18:54.758Z,97931.96
2018-03-15T01:21:23.599Z,97933.90
2018-03-15T01:23:53.579Z,97931.22
2018-03-15T01:26:21.984Z,97921.52
2018-03-15T01:28:51.346Z,97913.30
2018-03-15T01:31:20.901Z,97909.28
2018-03-15T01:33:50.712Z,97905.20
2018-03-15T01:36:20.296Z,97908.05
2018-03-15T01:38:49.191Z,97907.77
2018-03-15T01:41:17.582Z,97910.98
2018-03-15T01:43:46.442Z,97910.39
2018-03-15T01:46:15.640Z,97912.80
2018-03-15T01:48:45.156Z,97916.67
2018-03-15T01:51:13.964Z,97912.37
2018-03-15T01:53:42.310Z,97910.45
2018-03-15T01:56:12.139Z,97909.87
2018-03-15T01:58:40.472Z,97907.83
2018-03-15T02:01:08.824Z,97910.91
2018-03-15T02:03:38.084Z,97909.15
2018-03-15T02:06:07.284Z,97899.25
2018-03-15T02:08:36.572Z,97901.35
2018-03-15T02:11:05.295Z,97905.44
2018-03-15T02:13:34.567Z,97902.48
2018-03-15T02:16:03.652Z,97897.89
2018-03-15T02:18:32.842Z,97893.03
2018-03-15T02:21:02.953Z,97896.71
2018-03-15T02:23:31.406Z,97894.75
2018-03-15T02:26:01.253Z,97892.95
2018-03-15T02:28:29.845Z,97893.14
2018-03-15T02:30:59.164Z,97890.37
2018-03-15T02:33:27.492Z,97891.17
2018-03-15T02:35:55.861Z,97886.73
2018-03-15T02:38:24.242Z,97889.44
2018-03-15T02:40:52.616Z,97885.45
2018-03-15T02:43:21.067Z,97885.75
2018-03-15T02:45:51.003Z,97885.83
2018-03-15T02:48:19.598Z,97875.33
2018-03-15T02:50:48.074Z,97873.48
2018-03-15T02:53:17.479Z,97868.00
2018-03-15T02:55:46.596Z,97861.98
2018-03-15T02:58:15.544Z,97864.50
2018-03-15T03:00:48.407Z,97855.70
2018-03-15T03:03:17.358Z,97852.27
2018-03-15T03:05:45.787Z,97848.81
2018-03-15T03:08:15.455Z,97850.66
2018-03-15T03:10:45.110Z,97847.34
2018-03-15T03:13:13.687Z,97842.59
2018-03-15T03:15:42.280Z,97836.77
2018-03-15T03:18:10.616Z,97835.50
2018-03-15T03:20:40.831Z,97834.62
2018-03-15T03:23:10.108Z,97835.46
2018-03-15T03:25:38.874Z,97838.12
2018-03-15T03:28:08.871Z,97827.75
2018-03-15T03:30:38.322Z,97825.98
2018-03-15T03:33:07.929Z,97823.58
2018-03-15T03:35:37.824Z,97819.19
2018-03-15T03:38:06.557Z,97819.80
2018-03-15T03:40:36.819Z,97821.61
2018-03-15T03:43:05.482Z,97814.33
2018-03-15T03:45:34.757Z,97812.05
2018-03-15T03:48:03.589Z,97811.77
2018-03-15T03:50:32.932Z,97808.66
2018-03-15T03:53:01.264Z,97805.23
2018-03-15T03:55:31.646Z,97802.03
2018-03-15T03:57:59.975Z,97798.80
2018-03-15T04:00:28.331Z,97789.95
2018-03-15T04:02:57.667Z,97790.25
2018-03-15T04:05:26.551Z,97792.36
2018-03-15T04:07:54.939Z,97787.64
2018-03-15T04:10:23.282Z,97785.41
2018-03-15T04:12:54.900Z,97782.75
2018-03-15T04:15:23.326Z,97783.01
2018-03-15T04:17:52.309Z,97781.74
2018-03-15T04:20:22.406Z,97779.33
2018-03-15T04:22:51.491Z,97780.27
2018-03-15T04:25:20.210Z,97776.15
2018-03-15T04:27:49.024Z,97776.23
2018-03-15T04:30:18.136Z,97781.45
2018-03-15T04:32:46.506Z,97779.55
2018-03-15T04:35:15.148Z,97775.80
2018-03-15T04:37:44.321Z,97777.13
2018-03-15T04:40:13.163Z,97771.70
2018-03-15T04:42:42.598Z,97764.31
2018-03-15T04:45:11.711Z,97760.81
2018-03-15T04:47:40.819Z,97766.91
2018-03-15T04:50:09.214Z,97767.39
2018-03-15T04:52:38.871Z,97764.17
2018-03-15T04:55:08.341Z,97763.05
2018-03-15T04:57:38.648Z,97752.58
2018-03-15T05:00:06.991Z,97742.94
2018-03-15T05:02:36.206Z,97742.98
2018-03-15T05:05:04.547Z,97740.38
2018-03-15T05:07:32.904Z,97737.52
2018-03-15T05:10:01.238Z,97731.38
2018-03-15T05:12:30.393Z,97730.20
2018-03-15T05:15:00.299Z,97727.88
2018-03-15T05:17:29.747Z,97719.12
2018-03-15T05:19:59.987Z,97715.13
2018-03-15T05:22:28.700Z,97712.23
2018-03-15T05:24:57.132Z,97702.59
2018-03-15T05:27:25.554Z,97702.34
2018-03-15T05:29:54.803Z,97695.19
2018-03-15T05:32:23.803Z,97688.59
2018-03-15T05:34:56.293Z,97691.53
2018-03-15T05:37:24.726Z,97696.11
2018-03-15T05:39:54.547Z,97699.14
2018-03-15T05:42:23.086Z,97691.70
2018-03-15T05:44:52.366Z,97684.37
2018-03-15T05:47:21.763Z,97685.34
2018-03-15T05:49:50.219Z,97678.94
2018-03-15T05:52:18.622Z,97678.02
2018-03-15T05:54:47.902Z,97674.69
2018-03-15T05:57:16.352Z,97683.06
2018-03-15T05:59:45.816Z,97673.06
2018-03-15T06:02:14.455Z,97682.46
2018-03-15T06:04:42.783Z,97673.41
2018-03-15T06:07:17.162Z,97681.59
2018-03-15T06:09:45.495Z,97680.66
2018-03-15T06:12:16.687Z,97674.91
2018-03-15T06:14:46.186Z,97665.25
2018-03-15T06:17:16.366Z,97667.90
2018-03-15T06:19:44.707Z,97668.66
2018-03-15T06:22:13.114Z,97652.55
2018-03-15T06:24:41.450Z,97646.73
2018-03-15T06:27:09.810Z,97636.80
2018-03-15T06:29:39.138Z,97631.58
2018-03-15T06:32:07.503Z,97624.44
2018-03-15T06:34:35.837Z,97621.88
2018-03-15T06:37:04.257Z,97620.66
2018-03-15T06:39:33.004Z,97631.16
2018-03-15T06:42:01.546Z,97631.98
2018-03-15T06:44:31.761Z,97629.84
2018-03-15T06:47:02.086Z,97631.16
2018-03-15T06:49:30.467Z,97626.04
2018-03-15T06:52:01.650Z,97622.41
2018-03-15T06:54:30.290Z,97610.15
2018-03-15T06:56:58.635Z,97612.53
2018-03-15T06:59:26.957Z,97595.86
2018-03-15T07:01:55.845Z,97587.13
2018-03-15T07:04:25.466Z,97581.88
2018-03-15T07:06:53.851Z,97581.61
2018-03-15T07:09:22.181Z,97587.29
2018-03-15T07:11:51.458Z,97591.81
2018-03-15T07:14:20.195Z,97601.16
2018-03-15T07:16:49.841Z,97597.25
2018-03-15T07:19:18.715Z,97604.45
2018-03-15T07:21:48.495Z,97619.42
2018-03-15T07:24:17.646Z,97623.09
2018-03-15T07:26:46.762Z,97614.53
2018-03-15T07:29:15.182Z,97607.19
2018-03-15T07:31:43.532Z,97601.23
2018-03-15T07:34:13.892Z,97598.01
2018-03-15T07:36:43.724Z,97596.95
2018-03-15T07:39:12.186Z,97596.42
2018-03-15T07:41:41.546Z,97587.63
2018-03-15T07:44:09.892Z,97589.08
2018-03-15T07:46:38.276Z,97591.80
2018-03-15T07:49:07.455Z,97597.88
2018-03-15T07:51:37.005Z,97596.44
2018-03-15T07:54:06.251Z,97603.11
2018-03-15T07:56:35.945Z,97610.22
2018-03-15T07:59:05.050Z,97611.94
2018-03-15T08:01:33.671Z,97609.77
2018-03-15T08:04:02.451Z,97608.66
2018-03-15T08:06:30.815Z,97618.48
2018-03-15T08:08:59.240Z,97612.05
2018-03-15T08:11:28.575Z,97608.94
2018-03-15T08:13:58.190Z,97604.49
2018-03-15T08:16:27.377Z,97603.06
2018-03-15T08:18:55.718Z,97603.98
2018-03-15T08:21:24.291Z,97607.61
2018-03-15T08:23:54.270Z,97602.56
2018-03-15T08:26:23.794Z,97589.05
2018-03-15T08:28:53.030Z,97581.03
2018-03-15T08:31:21.400Z,97580.03
2018-03-15T08:33:49.766Z,97582.34
2018-03-15T08:36:19.395Z,97584.22
2018-03-15T08:38:47.775Z,97586.70
2018-03-15T08:41:16.136Z,97578.30
2018-03-15T08:43:44.758Z,97572.44
2018-03-15T08:46:15.030Z,97567.04
2018-03-15T08:48:44.123Z,97563.23
2018-03-15T08:51:12.801Z,97560.10
2018-03-15T08:53:41.123Z,97552.16
2018-03-15T08:56:11.191Z,97553.12
2018-03-15T08:58:39.560Z,97546.89
2018-03-15T09:01:08.886Z,97544.02
2018-03-15T09:03:38.147Z,97536.65
2018-03-15T09:06:07.317Z,97535.73
2018-03-15T09:08:39.690Z,97535.92
2018-03-15T09:11:10.932Z,97529.29
2018-03-15T09:13:40.356Z,97523.02
2018-03-15T09:16:09.827Z,97516.38
2018-03-15T09:18:39.015Z,97514.27
2018-03-15T09:21:07.377Z,97524.41
2018-03-15T09:23:37.934Z,97525.59
2018-03-15T09:26:06.262Z,97516.23
2018-03-15T09:28:35.813Z,97529.91
2018-03-15T09:31:04.169Z,97522.70
2018-03-15T09:33:33.366Z,97516.37
2018-03-15T09:36:02.429Z,97508.09
2018-03-15T09:38:30.791Z,97514.19
2018-03-15T09:40:59.133Z,97511.31
2018-03-15T09:43:27.527Z,97503.07
2018-03-15T09:45:57.261Z,97490.87
2018-03-15T09:48:25.614Z,97487.59
2018-03-15T09:50:54.931Z,97477.60
2018-03-15T09:53:23.343Z,97464.31
2018-03-15T09:55:53.512Z,97456.45
2018-03-15T09:58:23.159Z,97457.30
2018-03-15T10:00:51.501Z,97453.39
2018-03-15T10:03:19.876Z,97452.15
2018-03-15T10:05:48.648Z,97449.47
2018-03-15T10:08:17.383Z,97448.89
2018-03-15T10:10:45.810Z,97451.12
2018-03-15T10:13:14.894Z,97440.72
2018-03-15T10:15:43.667Z,97425.34
2018-03-15T10:18:12.913Z,97419.66
2018-03-15T10:20:43.098Z,97423.89
2018-03-15T10:23:12.183Z,97414.73
2018-03-15T10:25:41.811Z,97414.12
2018-03-15T10:28:10.220Z,97409.45
2018-03-15T10:30:40.895Z,97413.12
2018-03-15T10:33:17.102Z,97412.36
2018-03-15T10:35:46.487Z,97408.63
2018-03-15T10:38:14.894Z,97411.98
2018-03-15T10:40:44.911Z,97406.16
2018-03-15T10:43:13.881Z,97401.34
2018-03-15T10:45:43.105Z,97400.61
2018-03-15T10:48:11.474Z,97394.33
2018-03-15T10:50:41.299Z,97388.81
2018-03-15T10:53:11.166Z,97385.96
2018-03-15T10:55:40.769Z,97384.25
2018-03-15T10:58:09.400Z,97369.13
2018-03-15T11:00:45.197Z,97357.94
2018-03-15T11:03:17.385Z,97360.41
2018-03-15T11:05:48.105Z,97352.89
2018-03-15T11:08:23.113Z,97343.52
2018-03-15T11:11:09.309Z,97352.23
2018-03-15T11:13:37.688Z,97352.45
2018-03-15T11:16:06.034Z,97341.84
2018-03-15T11:18:35.569Z,97335.72
2018-03-15T11:21:04.155Z,97342.13
2018-03-15T11:23:32.586Z,97332.77
2018-03-15T11:26:01.401Z,97339.30
2018-03-15T11:28:30.224Z,97332.94
2018-03-15T11:30:59.554Z,97326.25
2018-03-15T11:33:27.959Z,97326.75
2018-03-15T11:35:56.349Z,97333.25
2018-03-15T11:38:25.641Z,97321.85
2018-03-15T11:40:54.020Z,97326.89
2018-03-15T11:43:28.689Z,97328.28
2018-03-15T11:45:57.038Z,97318.00
2018-03-15T11:48:26.191Z,97320.89
2018-03-15T11:50:54.528Z,97310.23
2018-03-15T11:53:23.742Z,97304.27
2018-03-15T11:55:52.226Z,97294.52
2018-03-15T11:58:21.161Z,97285.44
2018-03-15T12:00:49.500Z,97284.36
2018-03-15T12:03:18.803Z,97283.09
2018-03-15T12:05:47.154Z,97284.17
2018-03-15T12:08:15.539Z,97283.84
2018-03-15T12:10:43.871Z,97279.87
2018-03-15T12:13:12.237Z,97270.47
2018-03-15T12:15:42.014Z,97282.12
2018-03-15T12:18:10.932Z,97283.61
2018-03-15T12:20:39.682Z,97273.28
2018-03-15T12:23:10.601Z,97270.13
2018-03-15T12:25:38.964Z,97261.56
2018-03-15T12:28:07.359Z,97257.82
2018-03-15T12:30:36.540Z,97246.22
2018-03-15T12:33:06.307Z,97239.95
2018-03-15T12:35:38.331Z,97239.98
2018-03-15T12:38:08.702Z,97231.68
2018-03-15T12:40:37.086Z,97241.44
2018-03-15T12:43:06.429Z,97238.62
2018-03-15T12:45:35.758Z,97233.11
2018-03-15T12:48:05.438Z,97225.95
2018-03-15T12:50:35.518Z,97235.19
2018-03-15T12:53:03.857Z,97240.34
2018-03-15T12:55:32.184Z,97235.38
2018-03-15T12:58:03.470Z,97234.45
2018-03-15T13:00:33.112Z,97233.72
2018-03-15T13:03:03.312Z,97227.05
2018-03-15T13:05:31.663Z,97225.64
2018-03-15T13:08:00.113Z,97225.89
2018-03-15T13:10:29.575Z,97216.75
2018-03-15T13:12:58.747Z,97218.28
2018-03-15T13:15:28.105Z,97206.45
2018-03-15T13:17:57.421Z,97209.41
2018-03-15T13:20:26.564Z,97205.05
2018-03-15T13:22:56.329Z,97202.86
2018-03-15T13:25:25.247Z,97194.79
2018-03-15T13:27:53.592Z,97193.55
2018-03-15T13:30:22.206Z,97191.44
2018-03-15T13:32:51.542Z,97186.31
2018-03-15T13:35:19.946Z,97180.30
2018-03-15T13:37:49.183Z,97175.66
2018-03-15T13:40:17.965Z,97164.06
2018-03-15T13:42:49.350Z,97166.25
2018-03-15T13:45:18.519Z,97151.64
2018-03-15T13:47:49.668Z,97154.16
2018-03-15T13:50:19.710Z,97157.09
2018-03-15T13:52:48.195Z,97154.58
2018-03-15T13:55:16.524Z,97147.46
2018-03-15T13:57:44.938Z,97148.38
2018-03-15T14:00:13.489Z,97147.23
2018-03-15T14:02:42.330Z,97144.25
2018-03-15T14:05:12.253Z,97144.58
2018-03-15T14:07:40.589Z,97139.27
2018-03-15T14:10:08.998Z,97142.61
2018-03-15T14:12:37.350Z,97145.30
2018-03-15T14:15:07.428Z,97145.84
2018-03-15T14:17:35.816Z,97141.51
2018-03-15T14:20:06.074Z,97139.03
2018-03-15T14:22:36.783Z,97139.28
2018-03-15T14:25:06.763Z,97138.45
2018-03-15T14:27:36.321Z,97138.97
2018-03-15T14:30:04.646Z,97145.16
2018-03-15T14:32:33.944Z,97136.11
2018-03-15T14:35:04.488Z,97134.94
2018-03-15T14:37:32.874Z,97129.96
2018-03-15T14:40:01.739Z,97125.30
2018-03-15T14:42:30.495Z,97124.92
2018-03-15T14:44:59.426Z,97114.45
2018-03-15T14:47:27.759Z,97116.84
2018-03-15T14:49:56.402Z,97111.52
2018-03-15T14:52:26.733Z,97110.73
2018-03-15T14:54:55.584Z,97113.48
2018-03-15T14:57:24.354Z,97112.02
2018-03-15T14:59:52.691Z,97104.16
2018-03-15T15:02:24.012Z,97099.68
2018-03-15T15:04:53.296Z,97097.38
2018-03-15T15:07:21.639Z,97086.92
2018-03-15T15:09:51.136Z,97087.14
2018-03-15T15:12:20.517Z,97077.66
2018-03-15T15:14:50.389Z,97070.44
2018-03-15T15:17:18.980Z,97069.86
2018-03-15T15:19:48.165Z,97061.57
2018-03-15T15:22:16.493Z,97061.73
2018-03-15T15:24:45.140Z,97050.25
2018-03-15T15:27:17.178Z,97052.66
2018-03-15T15:29:50.785Z,97053.64
2018-03-15T15:32:20.040Z,97052.69
2018-03-15T15:34:48.731Z,97046.09
2018-03-15T15:37:17.686Z,97049.91
2018-03-15T15:39:46.038Z,97053.92
2018-03-15T15:42:14.642Z,97054.49
2018-03-15T15:44:43.984Z,97062.12
2018-03-15T15:47:12.355Z,97050.42
2018-03-15T15:49:41.852Z,97065.37
2018-03-15T15:52:10.707Z,97066.27
2018-03-15T15:54:39.079Z,97068.52
2018-03-15T15:57:08.563Z,97064.34
2018-03-15T15:59:36.928Z,97057.67
2018-03-15T16:02:05.266Z,97064.30
2018-03-15T16:04:33.686Z,97063.58
2018-03-15T16:07:03.056Z,97057.00
2018-03-15T16:09:32.416Z,97058.69
2018-03-15T16:12:01.824Z,97056.34
2018-03-15T16:14:30.472Z,97056.80
2018-03-15T16:16:59.752Z,97053.39
2018-03-15T16:19:28.114Z,97047.79
2018-03-15T16:21:57.089Z,97051.48
2018-03-15T16:24:25.440Z,97049.21
2018-03-15T16:26:53.772Z,97040.73
2018-03-15T16:29:22.823Z,97037.60
2018-03-15T16:31:51.434Z,97037.69
2018-03-15T16:34:20.631Z,97053.08
2018-03-15T16:36:50.328Z,97066.32
2018-03-15T16:39:19.842Z,97076.92
2018-03-15T16:41:48.180Z,97077.98
2018-03-15T16:44:17.260Z,97084.52
2018-03-15T16:46:45.599Z,97081.62
2018-03-15T16:49:13.995Z,97090.63
2018-03-15T16:51:43.482Z,97094.39
2018-03-15T16:54:12.891Z,97101.41
2018-03-15T16:56:42.321Z,97104.78
2018-03-15T16:59:10.733Z,97111.59
2018-03-15T17:01:40.033Z,97115.30
2018-03-15T17:04:08.595Z,97116.97
2018-03-15T17:06:38.681Z,97116.52
2018-03-15T17:09:10.063Z,97117.94
2018-03-15T17:11:39.572Z,97114.56
2018-03-15T17:14:08.588Z,97121.67
2018-03-15T17:16:37.224Z,97125.11
2018-03-15T17:19:08.611Z,97119.50
2018-03-15T17:21:36.991Z,97119.45
2018-03-15T17:24:07.404Z,97128.78
2018-03-15T17:26:35.869Z,97126.95
2018-03-15T17:29:06.205Z,97135.58
2018-03-15T17:31:34.619Z,97139.89
2018-03-15T17:34:03.775Z,97144.61
2018-03-15T17:36:33.674Z,97141.17
2018-03-15T17:39:02.404Z,97154.59
2018-03-15T17:41:30.770Z,97155.65
2018-03-15T17:44:00.019Z,97151.83
2018-03-15T17:46:29.389Z,97156.67
2018-03-15T17:48:58.740Z,97162.08
2018-03-15T17:51:27.761Z,97160.48
2018-03-15T17:53:56.129Z,97162.03
2018-03-15T17:56:25.421Z,97162.08
2018-03-15T17:58:55.541Z,97166.58
2018-03-15T18:01:24.839Z,97170.05
2018-03-15T18:03:53.189Z,97181.98
2018-03-15T18:06:22.031Z,97184.88
2018-03-15T18:08:51.435Z,97183.48
2018-03-15T18:11:20.057Z,97185.59
2018-03-15T18:13:50.195Z,97188.36
2018-03-15T18:16:18.806Z,97192.12
2018-03-15T18:18:49.191Z,97190.58
2018-03-15T18:21:17.542Z,97191.83
2018-03-15T18:23:47.394Z,97196.61
2018-03-15T18:26:23.244Z,97192.91
2018-03-15T18:28:53.688Z,97195.51
2018-03-15T18:31:24.008Z,97189.34
2018-03-15T18:33:53.288Z,97185.39
2018-03-15T18:36:22.734Z,97188.28
2018-03-15T18:38:51.092Z,97182.30
2018-03-15T18:41:19.532Z,97189.82
2018-03-15T18:43:47.899Z,97187.73
2018-03-15T18:46:19.958Z,97180.52
2018-03-15T18:48:48.919Z,97195.34
2018-03-15T18:51:20.868Z,97190.55
2018-03-15T18:53:49.813Z,97188.75
2018-03-15T18:56:19.036Z,97191.31
2018-03-15T18:58:47.435Z,97191.97
2018-03-15T19:01:15.765Z,97192.86
2018-03-15T19:03:45.537Z,97192.80
2018-03-15T19:06:14.602Z,97198.77
2018-03-15T19:08:42.955Z,97200.38
2018-03-15T19:11:15.072Z,97206.36
2018-03-15T19:13:44.248Z,97205.03
2018-03-15T19:16:14.127Z,97210.25
2018-03-15T19:18:42.996Z,97207.97
2018-03-15T19:21:12.273Z,97212.35
2018-03-15T19:23:42.884Z,97211.23
2018-03-15T19:26:11.305Z,97217.00
2018-03-15T19:28:40.475Z,97210.81
2018-03-15T19:31:08.905Z,97211.99
2018-03-15T19:33:38.597Z,97207.83
2018-03-15T19:36:06.980Z,97211.63
2018-03-15T19:38:35.452Z,97209.63
2018-03-15T19:41:04.563Z,97215.66
2018-03-15T19:43:32.989Z,97225.25
2018-03-15T19:46:01.698Z,97222.01
2018-03-15T19:48:30.037Z,97223.59
2018-03-15T19:50:58.439Z,97226.84
2018-03-15T19:53:27.706Z,97222.62
2018-03-15T19:56:02.816Z,97217.69
2018-03-15T19:58:32.061Z,97220.68
2018-03-15T20:01:00.664Z,97216.09
2018-03-15T20:03:29.011Z,97211.09
2018-03-15T20:05:58.876Z,97214.70
2018-03-15T20:08:27.477Z,97214.98
2018-03-15T20:10:56.791Z,97210.45
2018-03-15T20:13:25.424Z,97197.88
2018-03-15T20:15:56.311Z,97192.10
2018-03-15T20:18:26.149Z,97187.72
2018-03-15T20:20:56.078Z,97179.67
2018-03-15T20:23:30.942Z,97182.97
2018-03-15T20:26:01.320Z,97187.25
2018-03-15T20:28:35.284Z,97186.05
2018-03-15T20:31:04.597Z,97191.70
2018-03-15T20:33:44.344Z,97188.77
2018-03-15T20:36:14.042Z,97189.27
2018-03-15T20:38:44.687Z,97200.11
2018-03-15T20:41:20.408Z,97206.52
2018-03-15T20:43:58.433Z,97216.14
2018-03-15T20:46:33.779Z,97226.61
2018-03-15T20:49:08.511Z,97232.61
2018-03-15T20:51:37.738Z,97231.77
2018-03-15T20:54:06.147Z,97234.06
2018-03-15T20:56:34.866Z,97230.45
2018-03-15T20:59:04.774Z,97230.87
2018-03-15T21:01:34.286Z,97232.70
2018-03-15T21:04:03.416Z,97231.00
2018-03-15T21:06:32.464Z,97238.11
2018-03-15T21:09:01.745Z,97232.49
2018-03-15T21:11:30.922Z,97238.19
2018-03-15T21:14:00.099Z,97238.74
2018-03-15T21:16:28.463Z,97245.06
2018-03-15T21:18:57.179Z,97237.64
2018-03-15T21:21:26.466Z,97240.48
2018-03-15T21:23:56.448Z,97238.92
2018-03-15T21:26:26.446Z,97238.39
2018-03-15T21:28:55.592Z,97242.77
2018-03-15T21:31:24.023Z,97238.47
2018-03-15T21:33:52.379Z,97243.86
2018-03-15T21:36:21.738Z,97248.85
2018-03-15T21:38:51.031Z,97233.41
2018-03-15T21:41:19.384Z,97229.51
2018-03-15T21:43:48.429Z,97233.02
2018-03-15T21:46:17.527Z,97237.59
2018-03-15T21:48:45.856Z,97234.63
2018-03-15T21:51:14.936Z,97238.23
2018-03-15T21:53:45.611Z,97257.59
2018-03-15T21:56:14.251Z,97257.77
2018-03-15T21:58:42.622Z,97258.56
2018-03-15T22:01:13.064Z,97252.19
2018-03-15T22:03:41.627Z,97257.39
2018-03-15T22:06:12.274Z,97256.70
2018-03-15T22:08:42.985Z,97262.66
2018-03-15T22:11:12.218Z,97262.86
2018-03-15T22:13:40.912Z,97266.31
2018-03-15T22:16:10.607Z,97264.71
2018-03-15T22:18:39.977Z,97267.07
2018-03-15T22:21:09.247Z,97258.06
2018-03-15T22:23:38.112Z,97259.88
2018-03-15T22:26:08.085Z,97251.22
2018-03-15T22:28:36.414Z,97255.83
2018-03-15T22:31:04.793Z,97256.81
2018-03-15T22:33:33.153Z,97264.34
2018-03-15T22:36:01.567Z,97276.28
2018-03-15T22:38:30.747Z,97267.69
2018-03-15T22:41:00.326Z,97270.11
2018-03-15T22:43:29.496Z,97268.19
2018-03-15T22:45:58.152Z,97268.27
2018-03-15T22:48:28.046Z,97269.08
2018-03-15T22:50:56.518Z,97269.08
2018-03-15T22:53:25.527Z,97268.30
2018-03-15T22:55:54.903Z,97268.73
2018-03-15T22:58:26.211Z,97275.24
2018-03-15T23:00:55.132Z,97269.76
2018-03-15T23:03:23.922Z,97265.80
2018-03-15T23:05:54.467Z,97267.83
2018-03-15T23:08:22.802Z,97269.64
2018-03-15T23:10:51.871Z,97272.28
2018-03-15T23:13:21.151Z,97266.09
2018-03-15T23:15:53.181Z,97266.20
2018-03-15T23:18:22.545Z,97269.52
2018-03-15T23:20:50.895Z,97274.01
2018-03-15T23:23:20.450Z,97272.28
2018-03-15T23:25:49.648Z,97274.44
2018-03-15T23:28:18.020Z,97273.27
2018-03-15T23:30:47.010Z,97281.44
2018-03-15T23:33:15.339Z,97280.62
2018-03-15T23:35:44.834Z,97278.01
2018-03-15T23:38:13.578Z,97277.45
2018-03-15T23:40:42.681Z,97272.83
2018-03-15T23:43:11.051Z,97273.35
2018-03-15T23:45:40.871Z,97275.73
2018-03-15T23:48:09.964Z,97273.16
2018-03-15T23:50:38.803Z,97279.47
2018-03-15T23:53:07.194Z,97280.09
2018-03-15T23:55:36.235Z,97282.59
